createdAt,value
2022-08-14T00:04:34.794Z,1013.34
2022-08-14T00:09:16.836Z,1013.29
2022-08-14T00:14:23.989Z,1013.23
2022-08-14T00:19:31.174Z,1013.19
2022-08-14T00:24:38.390Z,1013.18
2022-08-14T00:29:45.581Z,1013.08
2022-08-14T00:34:52.765Z,1013.02
2022-08-14T00:40:00.293Z,1012.94
2022-08-14T00:45:07.206Z,1012.86
2022-08-14T00:50:17.885Z,1012.69
2022-08-14T00:55:21.566Z,1012.73
2022-08-14T01:00:37.100Z,1012.62
2022-08-14T01:05:41.776Z,1012.67
2022-08-14T01:10:43.147Z,1012.65
2022-08-14T01:15:58.421Z,1012.59
2022-08-14T01:20:57.500Z,1012.49
2022-08-14T01:26:04.753Z,1012.47
2022-08-14T01:31:11.870Z,1012.39
2022-08-14T01:36:21.107Z,1012.37
2022-08-14T01:41:30.150Z,1012.33
2022-08-14T01:46:36.737Z,1012.16
2022-08-14T01:51:41.027Z,1012.12
2022-08-14T01:56:48.008Z,1012.12
2022-08-14T02:01:58.878Z,1012.05
2022-08-14T02:07:03.604Z,1012.03
2022-08-14T02:12:10.870Z,1011.97
2022-08-14T02:17:18.081Z,1012.04
2022-08-14T02:22:29.028Z,1011.96
2022-08-14T02:28:22.108Z,1011.92
2022-08-14T02:32:39.724Z,1011.91
2022-08-14T02:37:47.898Z,1011.90
2022-08-14T02:42:57.589Z,1011.83
2022-08-14T02:48:01.436Z,1011.69
2022-08-14T02:53:08.886Z,1011.66
2022-08-14T02:58:21.430Z,1011.65
2022-08-14T03:03:23.005Z,1011.53
2022-08-14T03:08:30.208Z,1011.57
2022-08-14T03:13:37.508Z,1011.50
2022-08-14T03:18:44.660Z,1011.48
2022-08-14T03:23:51.848Z,1011.43
2022-08-14T03:29:00.989Z,1011.37
2022-08-14T03:34:10.189Z,1011.22
2022-08-14T03:39:21.629Z,1011.19
2022-08-14T03:45:19.031Z,1011.18
2022-08-14T03:49:28.277Z,1011.08
2022-08-14T03:54:35.379Z,1010.98
2022-08-14T03:59:42.581Z,1010.97
2022-08-14T04:04:49.755Z,1010.94
2022-08-14T04:09:57.035Z,1011.04
2022-08-14T04:15:04.240Z,1011.02
2022-08-14T04:20:11.527Z,1011.10
2022-08-14T04:25:19.310Z,1011.11
2022-08-14T04:30:32.851Z,1011.11
2022-08-14T04:35:55.517Z,1011.18
2022-08-14T04:40:40.969Z,1011.23
2022-08-14T04:45:51.199Z,1011.18
2022-08-14T04:50:55.320Z,1011.09
2022-08-14T04:56:02.502Z,1011.07
2022-08-14T05:01:12.747Z,1011.15
2022-08-14T05:06:37.199Z,1011.07
2022-08-14T05:11:24.040Z,1011.10
2022-08-14T05:16:31.237Z,1011.06
2022-08-14T05:21:55.894Z,1011.00
2022-08-14T05:26:45.643Z,1011.00
2022-08-14T05:31:57.204Z,1011.07
2022-08-14T05:37:02.210Z,1011.10
2022-08-14T05:42:09.958Z,1011.10
2022-08-14T05:47:15.357Z,1011.09
2022-08-14T05:52:26.364Z,1011.03
2022-08-14T05:57:29.010Z,1011.02
2022-08-14T06:02:36.246Z,1010.93
2022-08-14T06:07:43.422Z,1010.88
2022-08-14T06:12:56.446Z,1010.82
2022-08-14T06:17:59.078Z,1010.71
2022-08-14T06:23:05.131Z,1010.63
2022-08-14T06:28:26.862Z,1010.57
2022-08-14T06:33:19.629Z,1010.55
2022-08-14T06:38:26.914Z,1010.40
2022-08-14T06:43:34.165Z,1010.29
2022-08-14T06:48:41.977Z,1010.28
2022-08-14T06:53:48.683Z,1010.17
2022-08-14T06:58:55.956Z,1010.27
2022-08-14T07:04:03.146Z,1010.27
2022-08-14T07:09:10.325Z,1010.33
2022-08-14T07:14:17.593Z,1010.26
2022-08-14T07:19:24.764Z,1010.24
2022-08-14T07:24:31.962Z,1010.20
2022-08-14T07:29:39.245Z,1010.26
2022-08-14T07:34:46.438Z,1010.36
2022-08-14T07:39:53.691Z,1010.28
2022-08-14T07:45:00.821Z,1010.16
2022-08-14T07:50:08.093Z,1010.15
2022-08-14T07:55:15.356Z,1010.02
2022-08-14T08:00:30.858Z,1009.92
2022-08-14T08:05:29.769Z,1009.92
2022-08-14T08:10:46.781Z,1009.93
2022-08-14T08:15:44.215Z,1009.95
2022-08-14T08:20:52.003Z,1010.00
2022-08-14T08:25:58.629Z,1009.99
2022-08-14T08:31:05.871Z,1009.99
2022-08-14T08:36:18.731Z,1009.96
2022-08-14T08:41:20.338Z,1009.83
2022-08-14T08:46:27.552Z,1009.77
2022-08-14T08:51:34.857Z,1009.69
2022-08-14T08:56:42.258Z,1009.85
2022-08-14T09:01:51.466Z,1009.81
2022-08-14T09:07:09.320Z,1009.61
2022-08-14T09:12:03.637Z,1009.62
2022-08-14T09:17:10.861Z,1009.66
2022-08-14T09:22:33.330Z,1009.52
2022-08-14T09:27:25.886Z,1009.47
2022-08-14T09:32:59.155Z,1009.39
2022-08-14T09:37:40.386Z,1009.37
2022-08-14T09:42:50.082Z,1009.32
2022-08-14T09:47:54.866Z,1009.22
2022-08-14T09:53:02.544Z,1009.13
2022-08-14T09:58:09.347Z,1009.10
2022-08-14T10:03:16.659Z,1009.16
2022-08-14T10:08:26.334Z,1009.05
2022-08-14T10:13:43.325Z,1009.08
2022-08-14T10:18:39.388Z,1009.02
2022-08-14T10:23:46.579Z,1008.94
2022-08-14T10:29:19.391Z,1008.90
2022-08-14T10:34:01.024Z,1008.90
2022-08-14T10:39:08.199Z,1008.82
2022-08-14T10:44:20.827Z,1008.76
2022-08-14T10:49:23.408Z,1008.68
2022-08-14T10:54:37.253Z,1008.65
2022-08-14T10:59:38.126Z,1008.62
2022-08-14T11:04:44.377Z,1008.58
2022-08-14T11:09:51.510Z,1008.55
2022-08-14T11:14:59.854Z,1008.60
2022-08-14T11:20:05.964Z,1008.58
2022-08-14T11:25:13.175Z,1008.55
2022-08-14T11:30:51.100Z,1008.55
2022-08-14T11:35:44.089Z,1008.61
2022-08-14T11:40:34.950Z,1008.51
2022-08-14T11:45:42.038Z,1008.56
2022-08-14T11:50:49.234Z,1008.57
2022-08-14T11:55:56.438Z,1008.61
2022-08-14T12:01:03.601Z,1008.57
2022-08-14T12:06:29.807Z,1008.60
2022-08-14T12:11:18.050Z,1008.61
2022-08-14T12:16:25.256Z,1008.62
2022-08-14T12:21:32.537Z,1008.52
2022-08-14T12:26:41.007Z,1008.56
2022-08-14T12:31:47.436Z,1008.58
2022-08-14T12:36:54.261Z,1008.59
2022-08-14T12:42:01.587Z,1008.64
2022-08-14T12:47:08.755Z,1008.54
2022-08-14T12:52:17.306Z,1008.56
2022-08-14T12:57:23.116Z,1008.56
2022-08-14T13:02:30.354Z,1008.51
2022-08-14T13:07:37.565Z,1008.42
2022-08-14T13:13:10.019Z,1008.35
2022-08-14T13:17:52.102Z,1008.30
2022-08-14T13:22:59.179Z,1008.28
2022-08-14T13:28:11.221Z,1008.29
2022-08-14T13:33:14.784Z,1008.24
2022-08-14T13:38:20.792Z,1008.07
2022-08-14T13:43:31.653Z,1008.04
2022-08-14T13:48:36.216Z,1008.01
2022-08-14T13:53:43.923Z,1007.95
2022-08-14T13:58:49.713Z,1007.84
2022-08-14T14:03:56.946Z,1007.85
2022-08-14T14:09:04.229Z,1007.76
2022-08-14T14:14:29.520Z,1007.71
2022-08-14T14:19:19.810Z,1007.68
2022-08-14T14:24:34.556Z,1007.68
2022-08-14T14:29:34.332Z,1007.56
2022-08-14T14:34:41.564Z,1007.52
2022-08-14T14:40:52.932Z,1007.44
2022-08-14T14:44:56.571Z,1007.43
2022-08-14T14:50:03.249Z,1007.41
2022-08-14T14:55:10.479Z,1007.40
2022-08-14T15:00:18.418Z,1007.35
2022-08-14T15:05:28.186Z,1007.31
2022-08-14T15:10:35.417Z,1007.22
2022-08-14T15:15:39.559Z,1007.22
2022-08-14T15:20:46.436Z,1007.23
2022-08-14T15:25:53.635Z,1007.35
2022-08-14T15:31:00.938Z,1007.31
2022-08-14T15:36:25.618Z,1007.35
2022-08-14T15:41:15.347Z,1007.26
2022-08-14T15:46:25.316Z,1007.28
2022-08-14T15:51:31.357Z,1007.24
2022-08-14T15:56:42.886Z,1007.29
2022-08-14T16:01:54.078Z,1007.35
2022-08-14T16:06:54.789Z,1007.31
2022-08-14T16:11:58.489Z,1007.38
2022-08-14T16:17:06.991Z,1007.38
2022-08-14T16:22:58.380Z,1007.31
2022-08-14T16:27:23.416Z,1007.38
2022-08-14T16:32:27.422Z,1007.32
2022-08-14T16:37:35.261Z,1007.28
2022-08-14T16:43:04.104Z,1007.28
2022-08-14T16:47:50.798Z,1007.26
2022-08-14T16:53:00.909Z,1007.32
2022-08-14T16:58:03.538Z,1007.32
2022-08-14T17:03:11.901Z,1007.30
2022-08-14T17:08:32.970Z,1007.36
2022-08-14T17:13:27.071Z,1007.31
2022-08-14T17:18:33.464Z,1007.38
2022-08-14T17:23:40.706Z,1007.41
2022-08-14T17:28:52.246Z,1007.43
2022-08-14T17:33:55.180Z,1007.40
2022-08-14T17:39:06.243Z,1007.45
2022-08-14T17:44:09.660Z,1007.37
2022-08-14T17:49:17.985Z,1007.33
2022-08-14T17:54:35.053Z,1007.36
2022-08-14T17:59:31.494Z,1007.37
2022-08-14T18:04:38.752Z,1007.37
2022-08-14T18:09:57.345Z,1007.41
2022-08-14T18:14:53.278Z,1007.44
2022-08-14T18:20:00.513Z,1007.59
2022-08-14T18:25:18.344Z,1007.64
2022-08-14T18:30:33.147Z,1007.72
2022-08-14T18:35:22.186Z,1007.77
2022-08-14T18:40:34.364Z,1007.74
2022-08-14T18:45:41.253Z,1007.85
2022-08-14T18:50:43.754Z,1007.95
2022-08-14T18:55:53.658Z,1008.04
2022-08-14T19:00:59.088Z,1008.09
2022-08-14T19:06:06.580Z,1008.11
2022-08-14T19:11:13.811Z,1008.20
2022-08-14T19:16:22.888Z,1008.30
2022-08-14T19:21:28.221Z,1008.32
2022-08-14T19:26:54.604Z,1008.34
2022-08-14T19:31:55.044Z,1008.32
2022-08-14T19:37:05.083Z,1008.31
2022-08-14T19:41:57.121Z,1008.41
2022-08-14T19:47:10.890Z,1008.40
2022-08-14T19:52:17.415Z,1008.34
2022-08-14T19:57:19.224Z,1008.28
2022-08-14T20:02:29.842Z,1008.30
2022-08-14T20:08:00.349Z,1008.36
2022-08-14T20:12:57.897Z,1008.32
2022-08-14T20:17:49.037Z,1008.32
2022-08-14T20:22:56.280Z,1008.26
2022-08-14T20:28:03.535Z,1008.28
2022-08-14T20:33:11.756Z,1008.27
2022-08-14T20:38:29.516Z,1008.26
2022-08-14T20:43:25.426Z,1008.19
2022-08-14T20:48:53.309Z,1008.23
2022-08-14T20:53:39.611Z,1008.26
2022-08-14T20:58:48.887Z,1008.29
2022-08-14T21:03:57.182Z,1008.35
2022-08-14T21:09:01.244Z,1008.39
2022-08-14T21:14:09.419Z,1008.34
2022-08-14T21:19:16.710Z,1008.48
2022-08-14T21:24:39.957Z,1008.43
2022-08-14T21:29:31.066Z,1008.44
2022-08-14T21:34:38.332Z,1008.43
2022-08-14T21:39:45.629Z,1008.46
2022-08-14T21:44:53.414Z,1008.50
2022-08-14T21:50:00.091Z,1008.42
2022-08-14T21:55:09.485Z,1008.40
2022-08-14T22:00:32.431Z,1008.40
2022-08-14T22:05:21.773Z,1008.46
2022-08-14T22:10:28.958Z,1008.51
2022-08-14T22:15:36.156Z,1008.55
2022-08-14T22:20:43.434Z,1008.52
2022-08-14T22:25:50.612Z,1008.46
2022-08-14T22:30:57.823Z,1008.50
2022-08-14T22:36:05.205Z,1008.53
2022-08-14T22:41:27.438Z,1008.50
2022-08-14T22:46:20.316Z,1008.55
2022-08-14T22:51:27.721Z,1008.51
2022-08-14T22:56:34.043Z,1008.46
2022-08-14T23:01:55.172Z,1008.50
2022-08-14T23:07:02.091Z,1008.48
2022-08-14T23:11:56.674Z,1008.56
2022-08-14T23:17:03.078Z,1008.64
2022-08-14T23:22:10.351Z,1008.61
2022-08-14T23:27:26.603Z,1008.60
2022-08-14T23:32:25.610Z,1008.67
2022-08-14T23:37:32.890Z,1008.64
2022-08-14T23:42:40.675Z,1008.78
2022-08-14T23:47:52.104Z,1008.76
2022-08-14T23:53:07.852Z,1008.70
2022-08-14T23:58:01.852Z,1008.71
